Time;durP1;ratioP1;P1;durP2;ratioP2;P2;SDS_P1;SDS_P2;PMS_P1;PMS_P2;Temp;Humidity;BMP_temperature;BMP_pressure;BME280_temperature;BME280_humidity;BME280_pressure;Samples;Min_cycle;Max_cycle;Signal;HPM_P1;HPM_P2
2023/09/05 00:01:13;;;;;;;;;;;;;;;25.89;47.67;101675.63;5044965;28;20387;-55
2023/09/05 00:03:40;;;;;;;;;;;;;;;25.91;47.64;101663.75;5042313;28;19925;-53
2023/09/05 00:06:10;;;;;;;;;;;;;;;25.91;47.56;101672.72;5041491;28;19928;-55
2023/09/05 00:08:38;;;;;;;;;;;;;;;25.93;47.51;101665.31;5043771;28;19920;-54
2023/09/05 00:11:05;;;;;;;;;;;;;;;25.93;47.54;101668.03;5045062;28;19931;-55
2023/09/05 00:13:32;;;;;;;;;;;;;;;25.94;47.59;101667.00;5041128;28;20278;-55
2023/09/05 00:15:59;;;;;;;;;;;;;;;25.95;47.43;101659.72;5035204;28;19921;-55
2023/09/05 00:18:27;;;;;;;;;;;;;;;25.96;47.59;101664.13;5041373;28;19928;-54
2023/09/05 00:20:55;;;;;;;;;;;;;;;25.97;47.46;101666.69;5039784;28;19921;-55
2023/09/05 00:23:25;;;;;;;;;;;;;;;25.96;47.42;101662.25;5038354;28;19921;-54
2023/09/05 00:25:53;;;;;;;;;;;;;;;25.96;47.38;101659.53;5038019;28;19921;-55
2023/09/05 00:28:20;;;;;;;;;;;;;;;25.97;47.46;101655.84;5042152;28;19928;-54
2023/09/05 00:30:47;;;;;;;;;;;;;;;25.98;47.33;101660.25;5038185;28;19921;-55
2023/09/05 00:33:14;;;;;;;;;;;;;;;25.98;47.53;101649.41;5038260;28;20139;-55
2023/09/05 00:35:41;;;;;;;;;;;;;;;25.99;47.45;101652.97;5038552;28;19944;-55
2023/09/05 00:38:09;;;;;;;;;;;;;;;26.01;47.41;101650.94;5041226;28;19927;-55
2023/09/05 00:40:36;;;;;;;;;;;;;;;26.00;47.48;101650.09;5038208;28;19925;-55
2023/09/05 00:43:03;;;;;;;;;;;;;;;26.01;47.34;101651.81;5038078;28;19921;-55
2023/09/05 00:45:30;;;;;;;;;;;;;;;26.01;47.21;101651.81;5038176;28;19921;-55
2023/09/05 00:48:00;;;;;;;;;;;;;;;26.02;47.32;101649.94;5041231;28;20263;-59
2023/09/05 00:50:28;;;;;;;;;;;;;;;26.01;47.25;101646.38;5038217;28;19921;-59
2023/09/05 00:52:55;;;;;;;;;;;;;;;26.03;47.28;101648.94;5037933;28;19925;-59
2023/09/05 00:55:22;;;;;;;;;;;;;;;26.04;47.24;101645.19;5038039;28;19921;-59
2023/09/05 00:57:49;;;;;;;;;;;;;;;26.03;47.35;101638.94;5041301;28;19928;-54
2023/09/05 01:00:17;;;;;;;;;;;;;;;26.04;47.30;101642.50;5039323;28;19921;-55
2023/09/05 01:02:45;;;;;;;;;;;;;;;26.04;47.13;101635.19;5042791;28;20310;-55
2023/09/05 01:05:13;;;;;;;;;;;;;;;26.05;47.05;101636.03;5037573;28;19925;-54
2023/09/05 01:07:40;;;;;;;;;;;;;;;26.04;47.12;101632.47;5040962;28;19921;-57
2023/09/05 01:10:11;;;;;;;;;;;;;;;26.04;46.92;101632.47;5016827;28;19928;-55
2023/09/05 01:12:38;;;;;;;;;;;;;;;26.04;47.05;101629.78;5036261;28;20276;-54
2023/09/05 01:15:07;;;;;;;;;;;;;;;26.05;46.97;101627.91;5036250;28;19920;-55
2023/09/05 01:17:35;;;;;;;;;;;;;;;26.06;46.81;101624.19;5037447;28;19924;-56
2023/09/05 01:20:04;;;;;;;;;;;;;;;26.05;46.94;101626.06;5047702;28;19921;-60
2023/09/05 01:22:49;;;;;;;;;;;;;;;26.06;46.77;101621.50;5037594;28;19928;-59
2023/09/05 01:25:17;;;;;;;;;;;;;;;26.05;46.39;101612.50;5039505;28;20387;-59
2023/09/05 01:27:48;;;;;;;;;;;;;;;26.06;46.31;101624.19;5038819;28;20409;-55
2023/09/05 01:30:16;;;;;;;;;;;;;;;26.06;46.22;101625.06;5036485;28;19948;-54
2023/09/05 01:32:43;;;;;;;;;;;;;;;26.06;46.24;101614.19;5037773;28;19928;-55
2023/09/05 01:35:10;;;;;;;;;;;;;;;26.06;46.27;101616.91;5040763;28;19925;-55
2023/09/05 01:37:37;;;;;;;;;;;;;;;26.06;46.19;101622.34;5037918;28;19939;-56
2023/09/05 01:40:05;;;;;;;;;;;;;;;26.07;46.27;101621.31;5037669;28;19925;-59
2023/09/05 01:42:32;;;;;;;;;;;;;;;26.07;46.13;101618.59;5037942;28;19928;-59
2023/09/05 01:44:59;;;;;;;;;;;;;;;26.08;46.19;101617.59;5039489;28;19920;-59
2023/09/05 01:47:27;;;;;;;;;;;;;;;26.08;46.11;101631.16;5038198;28;19925;-59
2023/09/05 01:49:54;;;;;;;;;;;;;;;26.09;46.16;101630.19;5037249;28;19921;-55
2023/09/05 01:52:21;;;;;;;;;;;;;;;26.09;46.09;101641.03;5038064;28;19928;-56
2023/09/05 01:54:48;;;;;;;;;;;;;;;26.09;46.18;101638.31;5040146;28;19920;-55
2023/09/05 01:57:16;;;;;;;;;;;;;;;26.09;46.32;101643.75;5037824;28;19932;-55
2023/09/05 01:59:43;;;;;;;;;;;;;;;26.10;46.15;101637.31;5036083;28;19921;-59
2023/09/05 02:02:10;;;;;;;;;;;;;;;26.10;46.35;101634.59;5036296;28;19928;-59
2023/09/05 02:04:37;;;;;;;;;;;;;;;26.11;46.39;101641.72;5039141;28;19921;-59
2023/09/05 02:07:06;;;;;;;;;;;;;;;26.12;46.51;101643.41;5038187;28;20375;-60
2023/09/05 02:09:33;;;;;;;;;;;;;;;26.12;46.53;101635.25;5037113;28;19921;-54
2023/09/05 02:12:01;;;;;;;;;;;;;;;26.13;46.75;101637.00;5037709;28;19925;-54
2023/09/05 02:14:28;;;;;;;;;;;;;;;26.13;46.71;101626.13;5039995;28;20302;-54
2023/09/05 02:16:55;;;;;;;;;;;;;;;26.14;46.82;101624.28;5040546;28;19928;-55
2023/09/05 02:19:25;;;;;;;;;;;;;;;26.13;46.80;101620.72;5042155;28;20303;-53
2023/09/05 02:21:52;;;;;;;;;;;;;;;26.14;46.87;101622.41;5047766;28;19928;-55
2023/09/05 02:24:19;;;;;;;;;;;;;;;26.15;46.79;101625.97;5036935;28;19921;-55
2023/09/05 02:26:47;;;;;;;;;;;;;;;26.16;46.97;101624.94;5045268;28;20374;-55
2023/09/05 02:29:14;;;;;;;;;;;;;;;26.16;46.92;101624.94;5039135;28;19921;-59
2023/09/05 02:31:41;;;;;;;;;;;;;;;26.16;47.08;101626.81;5034702;28;19921;-60
2023/09/05 02:34:08;;;;;;;;;;;;;;;26.17;47.02;101625.78;5043565;28;19925;-59
2023/09/05 02:36:35;;;;;;;;;;;;;;;26.17;47.05;101623.97;5040095;28;19927;-59
2023/09/05 02:39:02;;;;;;;;;;;;;;;26.17;47.19;101623.09;5039090;28;19925;-59
2023/09/05 02:41:30;;;;;;;;;;;;;;;26.17;47.32;101614.94;5039757;28;19928;-59
2023/09/05 02:43:57;;;;;;;;;;;;;;;26.19;47.37;101618.38;5041851;28;19925;-62
2023/09/05 02:46:24;;;;;;;;;;;;;;;26.17;47.39;101615.81;5041765;28;19921;-62
2023/09/05 02:48:51;;;;;;;;;;;;;;;26.17;47.36;101623.09;5046367;28;19928;-62
2023/09/05 02:51:18;;;;;;;;;;;;;;;26.17;46.90;101625.78;5041069;28;19920;-62
2023/09/05 02:53:47;;;;;;;;;;;;;;;26.14;46.96;101622.41;5051173;28;19921;-62
2023/09/05 02:56:16;;;;;;;;;;;;;;;26.14;46.89;101616.13;5062405;28;19921;-62
2023/09/05 02:58:44;;;;;;;;;;;;;;;26.12;46.77;101627.13;5046879;28;19943;-66
2023/09/05 03:01:12;;;;;;;;;;;;;;;26.12;46.78;101635.25;5039444;28;19924;-67
2023/09/05 03:03:39;;;;;;;;;;;;;;;26.12;46.81;101631.69;5042831;28;19921;-66
2023/09/05 03:06:13;;;;;;;;;;;;;;;26.10;46.96;101631.03;5041012;28;19920;-66
2023/09/05 03:08:44;;;;;;;;;;;;;;;26.10;46.89;101634.59;5038948;28;19928;-67
2023/09/05 03:11:16;;;;;;;;;;;;;;;26.09;46.83;101632.88;5040089;28;19932;-66
2023/09/05 03:13:44;;;;;;;;;;;;;;;26.10;46.74;101641.88;5042232;28;19920;-66
2023/09/05 03:16:12;;;;;;;;;;;;;;;26.09;46.93;101629.28;5038666;28;19932;-66
2023/09/05 03:18:40;;;;;;;;;;;;;;;26.10;46.83;101633.72;5038789;28;19921;-66
2023/09/05 03:21:07;;;;;;;;;;;;;;;26.08;47.07;101636.59;5041086;28;19921;-66
2023/09/05 03:23:36;;;;;;;;;;;;;;;26.09;46.97;101640.16;5042678;28;19928;-66
2023/09/05 03:26:03;;;;;;;;;;;;;;;26.08;47.03;101630.31;5038870;28;19921;-66
2023/09/05 03:28:41;;;;;;;;;;;;;;;26.07;47.12;101629.47;5039277;28;19921;-66
2023/09/05 03:31:11;;;;;;;;;;;;;;;26.07;46.98;101624.03;5041080;28;20397;-66
2023/09/05 03:33:39;;;;;;;;;;;;;;;26.08;46.97;101628.44;5040390;28;19925;-66
2023/09/05 03:36:08;;;;;;;;;;;;;;;26.08;46.93;101630.31;5046193;28;19927;-66
2023/09/05 03:38:36;;;;;;;;;;;;;;;26.09;47.01;101626.56;5037832;28;20039;-62
2023/09/05 03:41:04;;;;;;;;;;;;;;;26.08;47.00;101625.72;5040546;28;19920;-62
2023/09/05 03:43:31;;;;;;;;;;;;;;;26.08;47.19;101614.88;5040086;28;19921;-62
2023/09/05 03:45:59;;;;;;;;;;;;;;;26.08;47.17;101617.59;5045482;28;19924;-62
2023/09/05 03:48:26;;;;;;;;;;;;;;;26.08;47.10;101619.47;5049106;28;19931;-66
2023/09/05 03:50:53;;;;;;;;;;;;;;;26.08;47.25;101616.75;5038708;28;19921;-66
2023/09/05 03:53:20;;;;;;;;;;;;;;;26.08;47.20;101619.47;5047216;28;19921;-66
2023/09/05 03:55:48;;;;;;;;;;;;;;;26.07;47.19;101621.31;5045020;28;19944;-66
2023/09/05 03:58:16;;;;;;;;;;;;;;;26.08;47.18;101614.88;5037996;28;19920;-62
2023/09/05 04:00:43;;;;;;;;;;;;;;;26.08;47.32;101598.59;5046844;28;19921;-62
2023/09/05 04:03:12;;;;;;;;;;;;;;;26.09;47.22;101602.16;5038059;28;19921;-62
2023/09/05 04:05:40;;;;;;;;;;;;;;;26.09;47.47;101602.16;5038008;28;19921;-62
2023/09/05 04:08:09;;;;;;;;;;;;;;;26.09;47.27;101611.19;5049220;28;19921;-62
2023/09/05 04:10:37;;;;;;;;;;;;;;;26.09;47.28;101613.88;5049254;28;19921;-62
2023/09/05 04:13:04;;;;;;;;;;;;;;;26.10;47.37;101607.44;5057260;28;19921;-62
2023/09/05 04:15:31;;;;;;;;;;;;;;;26.10;47.29;101602.03;5041217;28;19928;-62
2023/09/05 04:17:59;;;;;;;;;;;;;;;26.10;47.48;101599.31;5048828;28;19932;-66
2023/09/05 04:20:26;;;;;;;;;;;;;;;26.11;47.60;101595.56;5037850;28;19920;-66
2023/09/05 04:22:53;;;;;;;;;;;;;;;26.13;47.68;101599.00;5046558;28;19921;-66
2023/09/05 04:25:20;;;;;;;;;;;;;;;26.13;47.63;101588.16;5044460;28;19920;-66
2023/09/05 04:27:49;;;;;;;;;;;;;;;26.13;47.90;101593.56;5038433;28;19920;-66
2023/09/05 04:30:17;;;;;;;;;;;;;;;26.15;48.00;101593.41;5049037;28;20342;-66
2023/09/05 04:32:44;;;;;;;;;;;;;;;26.16;48.12;101596.97;5032581;28;19920;-66
2023/09/05 04:35:15;;;;;;;;;;;;;;;26.14;48.22;101595.25;5038246;28;19928;-66
2023/09/05 04:37:42;;;;;;;;;;;;;;;26.16;48.07;101594.25;5036955;28;19921;-66
2023/09/05 04:40:09;;;;;;;;;;;;;;;26.17;48.05;101604.09;5042151;28;19921;-66
2023/09/05 04:42:39;;;;;;;;;;;;;;;26.17;48.21;101598.66;5036816;28;19921;-66
2023/09/05 04:45:07;;;;;;;;;;;;;;;26.17;48.22;101595.94;5046031;28;19921;-66
2023/09/05 04:47:34;;;;;;;;;;;;;;;26.17;48.20;101601.38;5038179;28;20272;-66
2023/09/05 04:50:01;;;;;;;;;;;;;;;26.14;48.13;101587.13;5041673;28;19921;-62
2023/09/05 04:52:29;;;;;;;;;;;;;;;26.13;48.05;101588.16;5037891;28;19932;-62
2023/09/05 04:54:59;;;;;;;;;;;;;;;26.12;48.18;101589.13;5038483;28;19920;-62
2023/09/05 04:57:27;;;;;;;;;;;;;;;26.12;47.96;101586.41;5038574;28;19920;-62
2023/09/05 04:59:59;;;;;;;;;;;;;;;26.11;47.92;101584.72;5038306;28;19921;-62
2023/09/05 05:02:27;;;;;;;;;;;;;;;26.10;47.79;101588.44;5038076;28;19921;-62
2023/09/05 05:04:54;;;;;;;;;;;;;;;26.10;47.82;101593.88;5037730;28;19921;-63
2023/09/05 05:07:21;;;;;;;;;;;;;;;26.10;47.67;101587.59;5039233;28;19921;-62
2023/09/05 05:09:49;;;;;;;;;;;;;;;26.10;47.60;101588.44;5040170;28;19951;-66
2023/09/05 05:12:16;;;;;;;;;;;;;;;26.10;47.44;101593.03;5037665;28;19921;-66
2023/09/05 05:14:43;;;;;;;;;;;;;;;26.10;47.28;101593.03;5037955;28;19928;-62
2023/09/05 05:17:13;;;;;;;;;;;;;;;26.10;47.17;101593.88;5038675;28;19928;-62
2023/09/05 05:19:41;;;;;;;;;;;;;;;26.10;47.29;101596.59;5047524;28;19921;-62
2023/09/05 05:22:08;;;;;;;;;;;;;;;26.10;47.33;101599.31;5043177;28;19925;-62
2023/09/05 05:24:36;;;;;;;;;;;;;;;26.10;47.36;101598.47;5039549;28;19970;-62
2023/09/05 05:27:03;;;;;;;;;;;;;;;26.08;47.49;101595.88;5047924;28;19928;-62
2023/09/05 05:29:32;;;;;;;;;;;;;;;26.09;47.51;101600.31;5037861;28;19920;-66
2023/09/05 05:32:02;;;;;;;;;;;;;;;26.10;47.57;101614.75;5043665;28;19921;-66
2023/09/05 05:34:31;;;;;;;;;;;;;;;26.10;47.62;101612.88;5037590;28;19928;-66
2023/09/05 05:36:58;;;;;;;;;;;;;;;26.10;47.57;101617.44;5039568;28;19921;-66
2023/09/05 05:39:26;;;;;;;;;;;;;;;26.09;47.66;101618.44;5038857;28;20279;-62
2023/09/05 05:41:53;;;;;;;;;;;;;;;26.08;47.68;101617.59;5037528;28;19928;-62
2023/09/05 05:44:20;;;;;;;;;;;;;;;26.09;47.67;101629.28;5047212;28;19935;-62
2023/09/05 05:46:47;;;;;;;;;;;;;;;26.09;47.68;101640.16;5046693;28;19920;-62
2023/09/05 05:49:14;;;;;;;;;;;;;;;26.08;48.03;101644.72;5038794;28;20023;-66
2023/09/05 05:51:41;;;;;;;;;;;;;;;26.09;48.12;101640.16;5042845;28;19921;-66
2023/09/05 05:54:09;;;;;;;;;;;;;;;26.09;48.07;101651.00;5046877;28;19932;-66
2023/09/05 05:56:37;;;;;;;;;;;;;;;26.08;48.27;101650.16;5036965;28;19929;-66
2023/09/05 05:59:04;;;;;;;;;;;;;;;26.09;48.23;101651.00;5046648;28;20291;-66
2023/09/05 06:01:33;;;;;;;;;;;;;;;26.08;48.32;101652.03;5039522;28;19925;-66
2023/09/05 06:04:01;;;;;;;;;;;;;;;26.08;48.49;101652.03;5047828;28;19920;-66
2023/09/05 06:06:28;;;;;;;;;;;;;;;26.07;48.32;101648.47;5040411;28;20280;-66
2023/09/05 06:08:55;;;;;;;;;;;;;;;26.09;48.38;101651.00;5051638;28;19921;-66
2023/09/05 06:11:23;;;;;;;;;;;;;;;26.08;48.45;101650.16;5046746;28;20376;-66
2023/09/05 06:13:51;;;;;;;;;;;;;;;26.08;48.65;101650.16;5048221;28;20307;-67
2023/09/05 06:16:20;;;;;;;;;;;;;;;26.09;48.39;101653.72;5052401;28;19932;-66
2023/09/05 06:18:47;;;;;;;;;;;;;;;26.10;48.40;101647.31;5040666;28;19921;-66
2023/09/05 06:21:15;;;;;;;;;;;;;;;26.09;48.25;101649.16;5040142;28;19928;-66
2023/09/05 06:23:42;;;;;;;;;;;;;;;26.10;48.38;101650.88;5040795;28;20375;-66
2023/09/05 06:26:09;;;;;;;;;;;;;;;26.10;48.20;101650.03;5041890;28;19924;-66
2023/09/05 06:28:36;;;;;;;;;;;;;;;26.09;48.01;101651.88;5042387;28;19921;-62
2023/09/05 06:31:04;;;;;;;;;;;;;;;26.10;48.01;101658.16;5041041;28;19921;-66
2023/09/05 06:33:31;;;;;;;;;;;;;;;26.09;48.00;101657.31;5040667;28;20294;-67
2023/09/05 06:36:04;;;;;;;;;;;;;;;26.10;48.04;101655.44;5042740;28;19921;-66
2023/09/05 06:38:31;;;;;;;;;;;;;;;26.10;47.92;101650.88;5037485;28;19924;-66
2023/09/05 06:41:03;;;;;;;;;;;;;;;26.11;48.01;101659.84;5039165;28;19921;-66
2023/09/05 06:43:30;;;;;;;;;;;;;;;26.11;48.17;101649.00;5038646;28;19928;-66
2023/09/05 06:46:01;;;;;;;;;;;;;;;26.11;48.08;101649.84;5044692;28;19927;-66
2023/09/05 06:48:31;;;;;;;;;;;;;;;26.12;48.21;101656.13;5035703;28;19928;-66
2023/09/05 06:50:59;;;;;;;;;;;;;;;26.13;48.44;101656.00;5036017;28;19928;-66
2023/09/05 06:53:27;;;;;;;;;;;;;;;26.13;48.51;101652.44;5034919;28;20380;-66
2023/09/05 06:55:54;;;;;;;;;;;;;;;26.12;48.62;101656.97;5035542;28;19921;-67
2023/09/05 06:58:22;;;;;;;;;;;;;;;26.11;48.74;101660.72;5035781;28;20399;-66
2023/09/05 07:00:54;;;;;;;;;;;;;;;26.12;48.68;101664.25;5035748;28;19921;-66
2023/09/05 07:03:25;;;;;;;;;;;;;;;26.14;48.75;101671.25;5035595;28;19921;-60
2023/09/05 07:05:53;;;;;;;;;;;;;;;26.14;48.92;101662.25;5048300;28;19932;-60
2023/09/05 07:08:23;;;;;;;;;;;;;;;26.13;49.08;101669.56;5046365;28;19921;-59
2023/09/05 07:10:51;;;;;;;;;;;;;;;26.09;49.21;101670.88;5043670;28;19928;-58
2023/09/05 07:13:18;;;;;;;;;;;;;;;26.08;49.15;101671.00;5053254;28;19920;-59
2023/09/05 07:15:45;;;;;;;;;;;;;;;26.06;49.28;101671.19;5047038;28;19921;-59
2023/09/05 07:18:12;;;;;;;;;;;;;;;26.07;49.31;101667.44;5044976;28;19928;-59
2023/09/05 07:20:40;;;;;;;;;;;;;;;26.10;49.58;101669.00;5041214;28;19925;-60
2023/09/05 07:23:07;;;;;;;;;;;;;;;26.09;49.43;101673.59;5051621;28;20275;-60
2023/09/05 07:25:38;;;;;;;;;;;;;;;26.11;49.40;101673.44;5040962;28;19921;-59
2023/09/05 07:28:05;;;;;;;;;;;;;;;26.10;49.57;101675.28;5045063;28;19921;-61
2023/09/05 07:30:33;;;;;;;;;;;;;;;26.02;49.30;101677.94;5037677;28;19943;-59
2023/09/05 07:33:00;;;;;;;;;;;;;;;25.96;49.39;101680.41;5041611;28;20383;-59
2023/09/05 07:35:27;;;;;;;;;;;;;;;25.96;49.25;101680.41;5054368;28;19921;-60
2023/09/05 07:37:54;;;;;;;;;;;;;;;25.96;49.26;101691.25;5044662;28;19928;-58
2023/09/05 07:40:23;;;;;;;;;;;;;;;25.97;49.10;101690.25;5048955;28;19921;-61
2023/09/05 07:42:50;;;;;;;;;;;;;;;25.97;48.88;101688.41;5038764;28;19925;-62
2023/09/05 07:45:18;;;;;;;;;;;;;;;25.97;48.98;101687.53;5048567;28;19920;-58
2023/09/05 07:47:45;;;;;;;;;;;;;;;25.94;49.03;101694.13;5044741;28;19927;-59
2023/09/05 07:50:12;;;;;;;;;;;;;;;25.95;49.04;101687.69;5039928;28;19940;-57
2023/09/05 07:52:40;;;;;;;;;;;;;;;25.95;48.88;101687.69;5049354;28;20456;-58
2023/09/05 07:55:07;;;;;;;;;;;;;;;25.93;48.85;101689.72;5040493;28;19927;-60
2023/09/05 07:57:36;;;;;;;;;;;;;;;25.94;48.69;101696.00;5044621;28;19928;-59
2023/09/05 08:00:04;;;;;;;;;;;;;;;25.92;48.72;101692.56;5044851;28;19921;-60
2023/09/05 08:02:39;;;;;;;;;;;;;;;25.89;48.51;101704.59;5057317;28;20363;-60
2023/09/05 08:05:06;;;;;;;;;;;;;;;25.86;48.30;101704.91;5061728;28;20383;-58
2023/09/05 08:07:35;;;;;;;;;;;;;;;25.85;48.10;101705.91;5045536;28;20295;-64
2023/09/05 08:10:02;;;;;;;;;;;;;;;25.87;47.94;101707.44;5048988;28;19921;-60
2023/09/05 08:12:29;;;;;;;;;;;;;;;25.88;47.70;101711.88;5053985;28;19921;-58
2023/09/05 08:14:57;;;;;;;;;;;;;;;25.82;47.78;101704.34;5045398;28;19921;-58
2023/09/05 08:17:24;;;;;;;;;;;;;;;25.79;47.51;101701.94;5038710;28;20398;-59
2023/09/05 08:19:51;;;;;;;;;;;;;;;25.79;47.41;101704.66;5038230;28;19928;-58
2023/09/05 08:22:18;;;;;;;;;;;;;;;25.80;47.13;101702.78;5041557;28;19928;-59
2023/09/05 08:24:46;;;;;;;;;;;;;;;25.84;47.04;101707.75;5038904;28;19921;-59
2023/09/05 08:27:13;;;;;;;;;;;;;;;25.85;46.48;101700.50;5037718;28;19921;-60
2023/09/05 08:29:41;;;;;;;;;;;;;;;25.89;46.16;101697.31;5038017;28;19925;-60
2023/09/05 08:32:09;;;;;;;;;;;;;;;25.94;46.23;101704.13;5041648;28;19927;-59
2023/09/05 08:34:40;;;;;;;;;;;;;;;25.97;46.06;101701.97;5039102;28;19921;-61
2023/09/05 08:37:07;;;;;;;;;;;;;;;25.99;45.70;101705.38;5038080;28;19928;-60
2023/09/05 08:39:35;;;;;;;;;;;;;;;26.02;45.41;101694.22;5038072;28;19925;-60
2023/09/05 08:42:05;;;;;;;;;;;;;;;26.03;45.15;101698.63;5041803;28;19927;-59
2023/09/05 08:44:35;;;;;;;;;;;;;;;26.04;44.97;101696.75;5038058;28;20375;-60
2023/09/05 08:47:03;;;;;;;;;;;;;;;26.06;44.54;101695.59;5038123;28;19921;-59
2023/09/05 08:49:33;;;;;;;;;;;;;;;26.08;44.24;101699.00;5037930;28;19928;-60
2023/09/05 08:52:02;;;;;;;;;;;;;;;26.09;44.30;101700.72;5040914;28;19928;-57
2023/09/05 08:54:30;;;;;;;;;;;;;;;26.09;44.30;101700.72;5037654;28;19921;-57
2023/09/05 08:56:58;;;;;;;;;;;;;;;26.11;44.22;101704.13;5037699;28;19925;-60
2023/09/05 08:59:25;;;;;;;;;;;;;;;26.13;43.70;101704.84;5039409;28;19928;-59
2023/09/05 09:01:55;;;;;;;;;;;;;;;26.14;43.43;101706.53;5043860;28;20390;-59
2023/09/05 09:04:23;;;;;;;;;;;;;;;26.17;42.88;101701.78;5042838;28;19927;-63
2023/09/05 09:06:56;;;;;;;;;;;;;;;26.19;42.76;101699.78;5039170;28;19925;-61
2023/09/05 09:09:36;;;;;;;;;;;;;;;26.20;42.65;101705.03;5049371;28;19928;-60
2023/09/05 09:12:03;;;;;;;;;;;;;;;26.19;42.40;101705.22;5041048;28;19920;-61
2023/09/05 09:14:30;;;;;;;;;;;;;;;26.18;42.21;101698.09;5040749;28;20479;-61
2023/09/05 09:17:00;;;;;;;;;;;;;;;26.21;42.19;101695.03;5049315;28;19920;-61
2023/09/05 09:19:30;;;;;;;;;;;;;;;26.22;42.29;101692.19;5038225;28;19927;-62
2023/09/05 09:22:05;;;;;;;;;;;;;;;26.25;42.47;101707.28;5041500;28;19925;-59
2023/09/05 09:24:35;;;;;;;;;;;;;;;26.26;42.70;101700.88;5039707;28;19921;-61
2023/09/05 09:27:04;;;;;;;;;;;;;;;26.27;42.57;101702.56;5048832;28;19921;-61
2023/09/05 09:29:31;;;;;;;;;;;;;;;26.27;42.43;101699.84;5038972;28;20294;-61
2023/09/05 09:32:03;;;;;;;;;;;;;;;26.26;42.46;101703.59;5042485;28;19925;-62
2023/09/05 09:34:31;;;;;;;;;;;;;;;26.26;42.30;101698.16;5048146;28;20290;-62
2023/09/05 09:36:58;;;;;;;;;;;;;;;26.26;42.18;101699.00;5035555;28;19931;-63
2023/09/05 09:39:27;;;;;;;;;;;;;;;26.27;42.44;101706.13;5047186;28;20418;-57
2023/09/05 09:41:56;;;;;;;;;;;;;;;26.29;42.60;101696.00;5047826;28;19921;-59
2023/09/05 09:44:25;;;;;;;;;;;;;;;26.31;42.88;101693.94;5041502;28;20296;-56
2023/09/05 09:46:54;;;;;;;;;;;;;;;26.32;42.82;101692.94;5052902;28;19994;-56
2023/09/05 09:49:22;;;;;;;;;;;;;;;26.33;43.04;101689.22;5041521;28;19925;-51
2023/09/05 09:51:53;;;;;;;;;;;;;;;26.35;42.94;101689.91;5041618;28;19928;-57
2023/09/05 09:54:32;;;;;;;;;;;;;;;26.36;42.78;101685.34;5042006;28;19924;-56
2023/09/05 09:57:03;;;;;;;;;;;;;;;26.37;42.86;101674.34;5048877;28;20296;-56
2023/09/05 09:59:35;;;;;;;;;;;;;;;26.38;43.03;101676.03;5044675;28;20279;-58
2023/09/05 10:02:08;;;;;;;;;;;;;;;26.40;43.21;101665.00;5039998;28;19944;-54
2023/09/05 10:04:40;;;;;;;;;;;;;;;26.41;43.26;101658.56;5048574;28;19920;-56
2023/09/05 10:07:11;;;;;;;;;;;;;;;26.42;43.41;101668.41;5048134;28;19925;-57
2023/09/05 10:09:39;;;;;;;;;;;;;;;26.43;43.22;101659.25;5040813;28;19921;-60
2023/09/05 10:12:07;;;;;;;;;;;;;;;26.44;43.38;101666.38;5041815;28;19944;-59
2023/09/05 10:14:35;;;;;;;;;;;;;;;26.45;43.20;101662.69;5044349;28;19920;-60
2023/09/05 10:17:03;;;;;;;;;;;;;;;26.46;43.15;101667.13;5040625;28;20347;-60
2023/09/05 10:19:31;;;;;;;;;;;;;;;26.45;43.31;101668.13;5041073;28;20287;-56
2023/09/05 10:21:59;;;;;;;;;;;;;;;26.44;43.32;101669.09;5048867;28;19925;-56
2023/09/05 10:24:28;;;;;;;;;;;;;;;26.41;43.43;101666.69;5043520;28;20294;-56
2023/09/05 10:26:55;;;;;;;;;;;;;;;26.40;43.38;101665.00;5040720;28;19921;-55
2023/09/05 10:29:44;;;;;;;;;;;;;;;26.41;43.26;101658.56;5040697;28;19921;-57
2023/09/05 10:32:21;;;;;;;;;;;;;;;26.42;43.33;101662.16;5051594;28;19937;-58
2023/09/05 10:34:50;;;;;;;;;;;;;;;26.43;43.49;101647.56;5044026;28;20385;-58
2023/09/05 10:37:18;;;;;;;;;;;;;;;26.42;43.56;101656.72;5039935;28;19925;-58
2023/09/05 10:39:46;;;;;;;;;;;;;;;26.41;43.41;101652.28;5049728;28;19928;-61
2023/09/05 10:42:14;;;;;;;;;;;;;;;26.39;43.14;101650.56;5042299;28;19921;-61
2023/09/05 10:44:41;;;;;;;;;;;;;;;26.39;42.98;101642.44;5038789;28;20307;-61
2023/09/05 10:47:25;;;;;;;;;;;;;;;26.39;43.05;101638.88;5040452;28;19921;-61
2023/09/05 10:49:56;;;;;;;;;;;;;;;26.37;43.04;101633.59;5047102;28;19932;-58
2023/09/05 10:52:27;;;;;;;;;;;;;;;26.37;42.82;101638.16;5037921;28;19921;-58
2023/09/05 10:54:54;;;;;;;;;;;;;;;26.36;42.91;101631.03;5039997;28;19924;-57
2023/09/05 10:57:37;;;;;;;;;;;;;;;26.37;42.83;101635.44;5040841;28;20372;-58
2023/09/05 11:00:13;;;;;;;;;;;;;;;26.35;42.88;101632.91;5038398;28;19928;-58
2023/09/05 11:02:44;;;;;;;;;;;;;;;26.35;42.91;101624.75;5039706;28;20398;-57
2023/09/05 11:05:12;;;;;;;;;;;;;;;26.35;42.81;101624.75;5040148;28;19925;-57
2023/09/05 11:07:43;;;;;;;;;;;;;;;26.34;42.30;101625.78;5043226;28;19937;-61
2023/09/05 11:10:24;;;;;;;;;;;;;;;26.33;41.99;101615.94;5040300;28;19944;-58
2023/09/05 11:12:51;;;;;;;;;;;;;;;26.33;41.69;101610.50;5039538;28;19921;-57
2023/09/05 11:15:43;;;;;;;;;;;;;;;26.34;41.63;101608.63;5052755;28;19947;-58
2023/09/05 11:18:11;;;;;;;;;;;;;;;26.34;41.92;101609.50;5045551;28;19932;-58
2023/09/05 11:20:43;;;;;;;;;;;;;;;26.33;41.98;101602.38;5040797;28;19921;-57
2023/09/05 11:23:11;;;;;;;;;;;;;;;26.33;42.12;101604.19;5051473;28;19925;-57
2023/09/05 11:25:43;;;;;;;;;;;;;;;26.35;42.15;101605.75;5041602;28;20310;-57
2023/09/05 11:28:11;;;;;;;;;;;;;;;26.34;42.24;101598.63;5043310;28;19921;-61
2023/09/05 11:30:40;;;;;;;;;;;;;;;26.34;42.43;101604.06;5050439;28;19927;-61
2023/09/05 11:33:13;;;;;;;;;;;;;;;26.35;42.47;101602.19;5038543;28;19920;-61
2023/09/05 11:35:44;;;;;;;;;;;;;;;26.35;42.46;101596.75;5043060;28;19920;-61
2023/09/05 11:38:12;;;;;;;;;;;;;;;26.35;42.80;101596.75;5041767;28;19925;-61
2023/09/05 11:40:48;;;;;;;;;;;;;;;26.35;42.70;101591.34;5050580;28;19928;-61
2023/09/05 11:43:15;;;;;;;;;;;;;;;26.34;42.84;101585.06;5040657;28;20239;-61
2023/09/05 11:45:45;;;;;;;;;;;;;;;26.35;42.87;101589.47;5044344;28;19933;-61
2023/09/05 11:48:14;;;;;;;;;;;;;;;26.35;42.92;101585.91;5038759;28;19932;-61
2023/09/05 11:50:43;;;;;;;;;;;;;;;26.34;43.06;101574.19;5050263;28;19929;-61
2023/09/05 11:53:14;;;;;;;;;;;;;;;26.35;43.09;101575.03;5038611;28;19936;-61
2023/09/05 11:55:42;;;;;;;;;;;;;;;26.35;43.09;101575.88;5044544;28;19921;-61
2023/09/05 11:58:10;;;;;;;;;;;;;;;26.35;43.39;101578.59;5048288;28;19921;-61
2023/09/05 12:00:41;;;;;;;;;;;;;;;26.36;43.39;101565.88;5037471;28;19928;-61
2023/09/05 12:03:09;;;;;;;;;;;;;;;26.36;43.30;101560.44;5037527;28;19921;-61
2023/09/05 12:05:37;;;;;;;;;;;;;;;26.36;43.56;101549.59;5038529;28;19935;-61
2023/09/05 12:08:05;;;;;;;;;;;;;;;26.35;43.66;101546.03;5038536;28;19947;-58
2023/09/05 12:10:43;;;;;;;;;;;;;;;26.35;43.53;101546.03;5041934;28;19921;-58
2023/09/05 12:13:10;;;;;;;;;;;;;;;26.35;43.63;101543.31;5038394;28;19928;-57
2023/09/05 12:15:37;;;;;;;;;;;;;;;26.36;43.64;101544.16;5038142;28;20332;-58
2023/09/05 12:18:05;;;;;;;;;;;;;;;26.36;43.73;101536.88;5039747;28;19921;-61
2023/09/05 12:20:33;;;;;;;;;;;;;;;26.36;43.89;101533.31;5047246;28;19928;-61
2023/09/05 12:23:02;;;;;;;;;;;;;;;26.37;44.00;101537.72;5043272;28;20303;-61
2023/09/05 12:25:29;;;;;;;;;;;;;;;26.37;43.88;101529.56;5039925;28;19921;-61
2023/09/05 12:28:15;;;;;;;;;;;;;;;26.37;43.72;101516.00;5037818;28;19931;-57
2023/09/05 12:30:43;;;;;;;;;;;;;;;26.37;43.78;101519.59;5042045;28;19928;-58
2023/09/05 12:33:11;;;;;;;;;;;;;;;26.38;43.86;101525.88;5040100;28;19928;-58
2023/09/05 12:35:38;;;;;;;;;;;;;;;26.38;44.01;101523.16;5038968;28;19921;-58
2023/09/05 12:38:07;;;;;;;;;;;;;;;26.39;44.06;101516.69;5034282;28;19921;-59
2023/09/05 12:40:34;;;;;;;;;;;;;;;26.39;44.31;101517.53;5037960;28;19928;-60
2023/09/05 12:43:01;;;;;;;;;;;;;;;26.41;44.02;101525.50;5034209;28;19928;-60